Time;durP1;ratioP1;P1;durP2;ratioP2;P2;SDS_P1;SDS_P2;PMS_P1;PMS_P2;Temp;Humidity;BMP_temperature;BMP_pressure;BME280_temperature;BME280_humidity;BME280_pressure;Samples;Min_cycle;Max_cycle;Signal;HPM_P1;HPM_P2
2023/12/27 00:02:02;;;;;;;4.40;0.80;;;;;;;4.60;80.54;100688.27;105296;1285;61088;-56
2023/12/27 00:04:48;;;;;;;;;;;;;;;4.54;80.56;100699.48;106703;1285;58916;-60
2023/12/27 00:07:34;;;;;;;2.90;0.60;;;;;;;4.55;80.52;100697.60;106706;1284;73550;-60
2023/12/27 00:10:28;;;;;;;6.70;0.60;;;;;;;4.54;80.28;100695.02;106642;1284;67998;-60
2023/12/27 00:13:14;;;;;;;3.40;0.60;;;;;;;4.55;80.20;100700.16;106642;1284;71105;-60
2023/12/27 00:16:00;;;;;;;4.90;1.20;;;;;;;4.55;80.26;100705.97;106661;1285;59319;-60
2023/12/27 00:18:46;;;;;;;2.50;0.50;;;;;;;4.53;80.23;100712.94;106182;1285;59992;-59
2023/12/27 00:21:33;;;;;;;5.20;0.90;;;;;;;4.50;80.16;100715.98;105329;1288;73113;-59
2023/12/27 00:24:19;;;;;;;4.30;1.90;;;;;;;4.48;80.13;100718.88;105345;1284;68679;-58
2023/12/27 00:27:05;;;;;;;1.50;0.40;;;;;;;4.41;79.93;100728.00;105291;1288;71282;-59
2023/12/27 00:29:52;;;;;;;4.00;1.70;;;;;;;4.37;79.91;100740.09;105444;1284;61036;-59
2023/12/27 00:32:38;;;;;;;;;;;;;;;4.38;79.67;100744.02;105370;1285;61114;-57
2023/12/27 00:35:24;;;;;;;4.00;0.70;;;;;;;4.40;79.51;100750.70;105345;1288;73361;-59
2023/12/27 00:38:10;;;;;;;3.40;0.50;;;;;;;4.40;79.33;100755.65;105247;1288;67264;-59
2023/12/27 00:40:57;;;;;;;4.00;0.60;;;;;;;4.37;79.41;100760.04;105272;1288;73176;-57
2023/12/27 00:43:43;;;;;;;16.90;15.40;;;;;;;4.31;79.28;100761.52;105318;1285;61390;-59
2023/12/27 00:46:29;;;;;;;2.40;1.00;;;;;;;4.26;79.27;100762.64;105324;1285;60993;-56
2023/12/27 00:49:16;;;;;;;3.70;0.60;;;;;;;4.19;79.32;100775.02;105290;1286;73204;-60
2023/12/27 00:52:03;;;;;;;6.80;0.80;;;;;;;4.16;79.21;100779.60;105307;1288;67764;-59
2023/12/27 00:54:49;;;;;;;3.10;0.80;;;;;;;4.15;79.28;100782.67;106647;1284;71252;-60
2023/12/27 00:57:35;;;;;;;1.90;0.80;;;;;;;4.16;79.28;100789.15;106598;1284;58957;-60
2023/12/27 01:00:21;;;;;;;5.50;0.80;;;;;;;4.18;79.39;100793.43;106676;1285;59391;-60
2023/12/27 01:03:07;;;;;;;610.00;160.60;;;;;;;4.24;79.33;100802.21;106713;1284;75328;-61
2023/12/27 01:05:53;;;;;;;4.80;1.20;;;;;;;4.31;79.18;100804.35;106624;1286;67954;-60
2023/12/27 01:08:39;;;;;;;7.50;1.00;;;;;;;4.37;79.22;100805.44;106646;1285;71246;-60
2023/12/27 01:11:27;;;;;;;3.10;0.50;;;;;;;4.39;79.16;100813.15;106660;1284;59004;-60
2023/12/27 01:14:13;;;;;;;5.60;1.10;;;;;;;4.44;79.20;100816.62;105916;1286;61292;-58
2023/12/27 01:17:00;;;;;;;6.40;0.90;;;;;;;4.48;79.03;100827.09;105355;1285;73223;-57
2023/12/27 01:19:46;;;;;;;25.90;8.90;;;;;;;4.53;79.02;100828.85;105311;1285;69979;-59
2023/12/27 01:22:32;;;;;;;2.60;1.50;;;;;;;4.55;78.72;100832.63;105318;1285;72259;-59
2023/12/27 01:25:18;;;;;;;12.10;0.80;;;;;;;4.54;78.86;100833.65;105220;1285;61701;-59
2023/12/27 01:28:05;;;;;;;4.80;0.80;;;;;;;4.54;78.96;100835.36;105324;1286;61652;-55
2023/12/27 01:30:51;;;;;;;5.60;1.10;;;;;;;4.55;78.80;100838.27;105394;1284;74066;-58
2023/12/27 01:33:37;;;;;;;2.80;1.00;;;;;;;4.56;78.90;100845.11;105421;1288;68785;-59
2023/12/27 01:36:24;;;;;;;84.80;10.20;;;;;;;4.57;78.87;100842.21;105260;1285;71848;-59
2023/12/27 01:39:10;;;;;;;2.60;1.00;;;;;;;4.59;78.62;100853.68;105320;1285;61401;-59
2023/12/27 01:41:56;;;;;;;5.90;0.90;;;;;;;4.59;78.61;100855.73;105343;1285;62891;-59
2023/12/27 01:44:42;;;;;;;2.40;0.80;;;;;;;4.60;78.66;100861.72;105375;1284;74098;-58
2023/12/27 01:47:29;;;;;;;7.80;1.20;;;;;;;4.61;78.57;100860.88;105322;1285;67194;-57
2023/12/27 01:50:15;;;;;;;9.50;1.20;;;;;;;4.61;78.54;100866.35;105313;1285;71278;-58
2023/12/27 01:53:02;;;;;;;;;;;;;;;4.63;78.50;100868.41;105352;1288;61174;-59
2023/12/27 01:55:49;;;;;;;4.90;0.90;;;;;;;4.64;78.49;100869.45;105374;1285;63463;-58
2023/12/27 01:58:35;;;;;;;48.30;27.20;;;;;;;4.64;78.42;100870.14;105287;1286;73252;-59
2023/12/27 02:01:21;;;;;;;;;;;;;;;4.64;78.12;100872.52;105298;1285;67187;-58
2023/12/27 02:04:08;;;;;;;6.20;0.50;;;;;;;4.64;78.25;100869.63;105279;1288;74069;-57
2023/12/27 02:06:55;;;;;;;6.20;1.10;;;;;;;4.64;78.38;100876.45;105230;1285;61193;-58
2023/12/27 02:09:41;;;;;;;4.00;1.00;;;;;;;4.66;78.35;100887.58;106618;1285;59021;-58
2023/12/27 02:12:34;;;;;;;4.00;1.00;;;;;;;4.68;78.11;100890.31;73913;1285;10002764;-59
2023/12/27 02:15:51;;;;;;;2.60;1.10;;;;;;;4.72;77.89;100894.27;91852;1284;20074934;-58
2023/12/27 02:18:38;;;;;;;5.60;0.90;;;;;;;4.75;78.13;100904.55;105590;1286;74503;-59
2023/12/27 02:21:25;;;;;;;7.50;1.00;;;;;;;4.77;77.71;100906.80;105300;1286;66232;-58
2023/12/27 02:24:13;;;;;;;8.50;1.30;;;;;;;4.80;77.74;100905.81;106586;1285;72171;-60
2023/12/27 02:27:08;;;;;;;6.70;3.50;;;;;;;4.81;77.93;100910.79;106597;1285;59284;-59
2023/12/27 02:29:54;;;;;;;9.90;1.40;;;;;;;4.83;77.47;100909.61;106594;1285;59034;-60
2023/12/27 02:32:40;;;;;;;3.70;0.80;;;;;;;4.84;77.67;100917.83;106589;1286;74305;-60
2023/12/27 02:35:26;;;;;;;7.80;1.20;;;;;;;4.84;77.69;100918.86;106558;1285;68627;-60
2023/12/27 02:38:12;;;;;;;11.00;1.10;;;;;;;4.86;77.49;100923.83;106564;1288;71452;-60
2023/12/27 02:41:05;;;;;;;6.10;1.00;;;;;;;4.87;77.66;100926.91;106600;1285;59324;-60
2023/12/27 02:43:51;;;;;;;8.90;1.40;;;;;;;4.89;77.55;100930.01;106593;1285;58891;-60
2023/12/27 02:46:37;;;;;;;8.50;1.30;;;;;;;4.88;77.61;100932.91;106565;1285;73412;-60
2023/12/27 02:49:23;;;;;;;7.50;0.90;;;;;;;4.89;77.51;100931.20;106617;1285;69078;-60
2023/12/27 02:52:09;;;;;;;6.30;1.00;;;;;;;4.88;77.25;100935.64;106599;1285;71195;-60
2023/12/27 02:54:59;;;;;;;6.30;1.10;;;;;;;4.89;77.04;100939.58;106571;1285;58846;-60
2023/12/27 02:57:45;;;;;;;8.10;1.20;;;;;;;4.89;77.00;100946.06;106629;1285;60420;-60
2023/12/27 03:00:35;;;;;;;9.30;1.10;;;;;;;4.90;77.00;100951.20;106297;1285;73234;-56
2023/12/27 03:03:21;;;;;;;4.80;1.00;;;;;;;4.88;76.83;100949.98;105313;1286;67199;-59
2023/12/27 03:06:07;;;;;;;5.20;1.00;;;;;;;4.88;77.22;100954.77;105242;1286;71177;-58
2023/12/27 03:08:53;;;;;;;407.50;226.70;;;;;;;4.87;76.99;100959.55;105258;1285;61260;-57
2023/12/27 03:11:40;;;;;;;7.10;1.50;;;;;;;4.86;76.91;100956.12;105221;1285;61171;-59
2023/12/27 03:14:26;;;;;;;4.20;0.80;;;;;;;4.84;76.89;100955.91;105261;1284;76027;-58
2023/12/27 03:17:23;;;;;;;7.70;1.20;;;;;;;4.82;76.90;100966.13;91243;1287;5005479;-59
2023/12/27 03:20:09;;;;;;;8.10;1.80;;;;;;;4.81;76.84;100965.95;106696;1285;71394;-59
2023/12/27 03:22:55;;;;;;;4.70;1.20;;;;;;;4.82;76.89;100965.11;106681;1284;58948;-59
2023/12/27 03:25:41;;;;;;;11.00;1.10;;;;;;;4.82;76.97;100967.68;106630;1284;59247;-60
2023/12/27 03:28:27;;;;;;;4.90;1.10;;;;;;;4.83;76.66;100971.61;106568;1285;73345;-60
2023/12/27 03:31:13;;;;;;;5.00;1.10;;;;;;;4.84;76.86;100970.44;106051;1285;68587;-58
2023/12/27 03:34:00;;;;;;;8.00;1.50;;;;;;;4.82;76.86;100976.05;105369;1286;71245;-58
2023/12/27 03:36:46;;;;;;;9.20;2.10;;;;;;;4.81;76.94;100975.17;105198;1285;64677;-58
2023/12/27 03:39:32;;;;;;;9.80;2.50;;;;;;;4.77;77.05;100977.84;105279;1286;61250;-59
2023/12/27 03:42:21;;;;;;;9.90;2.20;;;;;;;4.74;77.09;100978.66;105352;1284;75948;-57
2023/12/27 03:45:09;;;;;;;9.60;2.20;;;;;;;4.70;77.16;100977.75;105326;1288;67320;-58
2023/12/27 03:47:55;;;;;;;12.10;2.90;;;;;;;4.68;77.18;100980.46;106652;1285;71431;-60
2023/12/27 03:50:41;;;;;;;4.50;1.20;;;;;;;4.65;76.94;100979.09;106686;1286;59400;-60
2023/12/27 03:53:27;;;;;;;6.80;1.60;;;;;;;4.64;77.13;100980.27;106656;1284;60179;-59
2023/12/27 03:56:13;;;;;;;5.70;1.60;;;;;;;4.63;77.07;100979.41;106103;1285;73366;-58
2023/12/27 03:59:03;;;;;;;8.70;1.80;;;;;;;4.64;77.12;100983.67;106635;1286;67405;-59
2023/12/27 04:01:49;;;;;;;14.90;3.30;;;;;;;4.65;77.13;100985.06;106611;1286;71394;-59
2023/12/27 04:04:38;;;;;;;10.80;2.10;;;;;;;4.65;77.04;100989.00;106522;1285;167458;-59
2023/12/27 04:07:24;;;;;;;22.20;6.60;;;;;;;4.66;76.95;100999.59;106655;1286;59070;-60
2023/12/27 04:10:10;;;;;;;13.40;3.60;;;;;;;4.67;76.99;101001.31;106580;1285;73164;-60
2023/12/27 04:12:58;;;;;;;14.90;2.70;;;;;;;4.66;76.98;101014.79;106652;1285;67408;-58
2023/12/27 04:15:44;;;;;;;20.20;6.10;;;;;;;4.66;76.96;101012.05;106583;1287;72441;-60
2023/12/27 04:18:30;;;;;;;12.30;1.20;;;;;;;4.66;76.86;101013.59;106107;1288;59009;-57
2023/12/27 04:21:17;;;;;;;8.70;1.40;;;;;;;4.66;77.01;101012.73;105377;1288;61169;-59
2023/12/27 04:24:03;;;;;;;6.50;1.60;;;;;;;4.65;76.87;101018.53;105317;1288;73186;-58
2023/12/27 04:26:50;;;;;;;5.10;1.00;;;;;;;4.63;76.93;101018.85;105229;1288;77862;-58
2023/12/27 04:29:36;;;;;;;5.60;1.20;;;;;;;4.60;76.89;101027.34;105317;1286;71177;-59
2023/12/27 04:32:22;;;;;;;5.90;1.30;;;;;;;4.57;76.78;101035.83;105409;1285;61234;-59
2023/12/27 04:35:08;;;;;;;3.80;1.00;;;;;;;4.52;76.94;101036.25;105177;1285;61195;-57
2023/12/27 04:37:55;;;;;;;28.60;10.70;;;;;;;4.47;76.98;101042.49;105218;1288;75504;-59
2023/12/27 04:40:45;;;;;;;9.40;2.50;;;;;;;4.41;77.06;101049.05;105344;1288;66261;-58
2023/12/27 04:43:31;;;;;;;7.90;2.30;;;;;;;4.36;77.14;101055.30;105321;1286;72208;-59
2023/12/27 04:46:18;;;;;;;9.30;1.80;;;;;;;4.33;77.21;101059.33;105288;1286;61257;-59
2023/12/27 04:49:04;;;;;;;;;;;;;;;4.29;77.32;101062.70;105312;1285;61157;-55
2023/12/27 04:51:51;;;;;;;7.50;2.80;;;;;;;4.30;77.35;101067.81;106350;1286;73468;-58
2023/12/27 04:54:37;;;;;;;7.30;1.80;;;;;;;4.28;77.34;101069.16;105307;1286;71206;-55
2023/12/27 04:57:24;;;;;;;;;;;;;;;4.27;77.43;101071.01;105200;1285;92080;-56
2023/12/27 05:00:10;;;;;;;189.20;54.70;;;;;;;4.25;77.39;101077.11;105312;1286;61088;-57
2023/12/27 05:02:57;;;;;;;5.80;1.70;;;;;;;4.22;77.44;101078.45;105437;1285;61122;-57
2023/12/27 05:05:43;;;;;;;;;;;;;;;4.22;77.47;101078.09;105189;1286;74449;-59
2023/12/27 05:08:29;;;;;;;12.10;4.30;;;;;;;4.20;77.54;101073.27;105285;1285;72333;-59
2023/12/27 05:11:18;;;;;;;14.10;4.40;;;;;;;4.15;77.54;101075.60;105295;1288;71449;-57
2023/12/27 05:14:04;;;;;;;129.50;40.80;;;;;;;4.11;77.67;101081.16;105287;1288;61120;-59
2023/12/27 05:16:54;;;;;;;;;;;;;;;4.06;77.74;101083.98;105385;1286;61540;-59
2023/12/27 05:19:41;;;;;;;13.60;3.90;;;;;;;4.00;77.84;101086.60;105865;1286;75155;-59
2023/12/27 05:22:28;;;;;;;9.70;2.80;;;;;;;3.96;77.94;101089.93;106300;1286;68304;-58
2023/12/27 05:25:14;;;;;;;17.90;4.90;;;;;;;3.91;78.04;101094.95;105348;1285;71059;-57
2023/12/27 05:28:00;;;;;;;;;;;;;;;3.85;78.13;101100.30;105300;1286;61262;-59
2023/12/27 05:30:47;;;;;;;14.70;2.20;;;;;;;3.80;78.18;101100.54;105313;1288;61390;-59
2023/12/27 05:33:33;;;;;;;8.70;1.60;;;;;;;3.80;78.44;101112.82;105365;1284;77360;-58
2023/12/27 05:36:19;;;;;;;7.30;2.10;;;;;;;3.79;78.52;101115.02;105330;1284;67303;-59
2023/12/27 05:39:06;;;;;;;54.20;31.00;;;;;;;3.79;78.38;101125.77;105321;1286;72801;-58
2023/12/27 05:41:52;;;;;;;;;;;;;;;3.83;78.48;101129.25;105384;1286;61176;-57
2023/12/27 05:44:39;;;;;;;10.30;2.90;;;;;;;3.87;78.74;101138.70;105328;1288;61174;-58
2023/12/27 05:47:25;;;;;;;13.80;2.40;;;;;;;3.88;78.54;101139.75;105390;1285;73253;-57
2023/12/27 05:50:11;;;;;;;7.50;1.60;;;;;;;3.90;78.67;101144.92;105314;1285;67287;-56
2023/12/27 05:52:57;;;;;;;;;;;;;;;3.95;78.59;101147.22;105276;1286;75701;-58
2023/12/27 05:55:44;;;;;;;5.40;1.50;;;;;;;3.97;78.55;101146.92;105313;1285;61247;-59
2023/12/27 05:58:30;;;;;;;7.50;1.50;;;;;;;3.97;78.61;101146.59;105325;1288;61159;-59
2023/12/27 06:01:18;;;;;;;7.90;1.80;;;;;;;3.97;78.52;101153.23;105371;1286;75039;-58
2023/12/27 06:04:05;;;;;;;11.40;1.60;;;;;;;3.97;78.61;101155.97;105342;1285;68018;-58
2023/12/27 06:06:52;;;;;;;5.00;1.90;;;;;;;3.97;78.55;101156.64;105355;1288;74075;-58
2023/12/27 06:09:39;;;;;;;6.40;1.10;;;;;;;3.99;78.56;101164.87;105264;1288;61260;-58
2023/12/27 06:12:26;;;;;;;9.10;2.00;;;;;;;4.02;78.48;101165.61;106639;1285;60237;-60
2023/12/27 06:15:12;;;;;;;9.50;1.60;;;;;;;4.05;78.60;101171.12;106423;1286;74603;-58
2023/12/27 06:17:58;;;;;;;8.20;1.60;;;;;;;4.08;78.48;101174.77;105398;1286;67463;-59
2023/12/27 06:20:44;;;;;;;9.90;3.10;;;;;;;4.10;78.50;101181.97;105313;1286;71097;-57
2023/12/27 06:23:30;;;;;;;6.20;1.30;;;;;;;4.11;78.47;101182.16;105301;1285;62385;-57
2023/12/27 06:26:17;;;;;;;11.50;1.40;;;;;;;4.13;78.46;101187.66;105328;1286;61336;-59
2023/12/27 06:29:03;;;;;;;12.30;2.80;;;;;;;4.15;78.46;101195.55;105263;1286;75629;-59
2023/12/27 06:31:50;;;;;;;6.50;1.70;;;;;;;4.15;78.47;101189.75;105355;1286;67191;-57
2023/12/27 06:34:36;;;;;;;5.50;2.30;;;;;;;4.16;78.45;101195.90;105139;1289;74546;-56
2023/12/27 06:37:23;;;;;;;9.20;1.60;;;;;;;4.16;78.43;101203.75;105264;1289;61176;-58
2023/12/27 06:40:10;;;;;;;373.20;94.40;;;;;;;4.17;78.49;101202.55;105328;1286;61707;-56
2023/12/27 06:42:56;;;;;;;5.40;1.40;;;;;;;4.20;78.28;101206.36;105588;1285;73443;-58
2023/12/27 06:45:42;;;;;;;7.90;1.40;;;;;;;4.21;78.37;101205.54;105256;1286;67318;-56
2023/12/27 06:48:29;;;;;;;10.00;2.30;;;;;;;4.20;78.34;101204.32;105281;1288;72791;-57
2023/12/27 06:51:15;;;;;;;;;;;;;;;4.19;78.41;101202.94;105362;1286;61311;-57
2023/12/27 06:54:01;;;;;;;7.10;1.80;;;;;;;4.19;78.40;101209.42;105303;1286;61124;-59
2023/12/27 06:56:47;;;;;;;7.80;2.50;;;;;;;4.18;78.39;101212.13;105333;1288;73673;-58
2023/12/27 06:59:34;;;;;;;9.10;1.60;;;;;;;4.17;78.48;101217.23;105359;1288;67280;-58
2023/12/27 07:02:20;;;;;;;12.00;2.10;;;;;;;4.17;78.35;101230.70;105093;1284;71220;-58
2023/12/27 07:05:07;;;;;;;8.70;1.40;;;;;;;4.17;78.31;101236.16;105098;1286;63513;-58
2023/12/27 07:07:54;;;;;;;11.00;1.60;;;;;;;4.17;78.29;101248.98;105200;1285;61623;-57
2023/12/27 07:10:40;;;;;;;9.40;2.60;;;;;;;4.20;78.34;101261.83;105178;1285;73459;-57
2023/12/27 07:13:26;;;;;;;6.90;1.40;;;;;;;4.22;78.30;101268.85;105178;1286;69983;-59
2023/12/27 07:16:13;;;;;;;8.20;1.10;;;;;;;4.23;78.37;101267.70;105147;1288;71540;-55
2023/12/27 07:18:59;;;;;;;10.00;1.40;;;;;;;4.25;78.13;101272.00;105150;1286;61262;-54
2023/12/27 07:21:46;;;;;;;4.80;1.40;;;;;;;4.26;77.96;101279.54;105195;1284;59687;-56
2023/12/27 07:24:32;;;;;;;;;;;;;;;4.27;78.03;101285.70;105211;1289;75834;-57
2023/12/27 07:27:18;;;;;;;9.30;1.30;;;;;;;4.28;78.04;101295.27;105157;1286;69767;-56
2023/12/27 07:30:06;;;;;;;7.70;1.80;;;;;;;4.30;77.72;101302.81;105164;1289;74074;-56
2023/12/27 07:32:52;;;;;;;9.00;1.80;;;;;;;4.31;77.96;101307.45;106521;1285;59393;-59
2023/12/27 07:35:38;;;;;;;9.10;1.70;;;;;;;4.33;78.05;101309.71;106503;1285;60196;-58
2023/12/27 07:38:26;;;;;;;10.00;1.50;;;;;;;4.36;77.80;101307.54;105475;1286;73428;-58
2023/12/27 07:41:12;;;;;;;8.70;1.80;;;;;;;4.38;77.83;101309.98;105154;1286;67235;-59
2023/12/27 07:43:59;;;;;;;8.90;1.50;;;;;;;4.40;77.73;101304.05;105183;1289;70660;-58
2023/12/27 07:46:45;;;;;;;3.50;0.90;;;;;;;4.41;77.87;101312.27;105095;1287;59634;-58
2023/12/27 07:49:31;;;;;;;6.60;1.20;;;;;;;4.43;77.92;101320.14;105199;1286;61269;-57
2023/12/27 07:52:18;;;;;;;12.40;3.50;;;;;;;4.43;77.96;101323.23;105186;1286;75188;-59
2023/12/27 07:55:04;;;;;;;12.80;1.80;;;;;;;4.42;77.73;101323.55;104994;1290;67566;-58
2023/12/27 07:57:50;;;;;;;;;;;;;;;4.41;77.78;101325.92;106546;1285;72359;-58
2023/12/27 08:00:36;;;;;;;7.80;1.60;;;;;;;4.42;77.73;101328.33;106505;1286;59062;-59
2023/12/27 08:03:29;;;;;;;7.80;1.10;;;;;;;4.43;77.50;101333.81;106661;1285;59201;-59
2023/12/27 08:06:18;;;;;;;10.20;2.00;;;;;;;4.41;77.47;101341.13;106419;1285;73465;-59
2023/12/27 08:09:04;;;;;;;13.40;2.70;;;;;;;4.42;77.46;101346.25;106501;1285;67506;-58
2023/12/27 08:11:51;;;;;;;19.50;7.30;;;;;;;4.47;77.51;101344.49;106507;1287;70160;-58
2023/12/27 08:14:37;;;;;;;;;;;;;;;4.50;77.27;101350.00;106575;1285;58972;-59
2023/12/27 08:17:26;;;;;;;16.60;1.50;;;;;;;4.50;77.39;101348.81;106660;1285;59296;-59
2023/12/27 08:20:12;;;;;;;7.30;2.30;;;;;;;4.52;77.38;101353.80;105165;1285;343840;-59
2023/12/27 08:22:58;;;;;;;;;;;;;;;4.55;77.24;101357.61;105200;1287;69644;-58
2023/12/27 08:25:45;;;;;;;;;;;;;;;4.54;77.05;101363.41;105197;1289;71280;-58
2023/12/27 08:28:32;;;;;;;10.70;1.60;;;;;;;4.52;77.33;101367.97;105110;1285;61035;-55
2023/12/27 08:31:18;;;;;;;27.30;8.10;;;;;;;4.50;77.24;101369.80;105266;1286;62592;-57
2023/12/27 08:34:05;;;;;;;8.30;1.50;;;;;;;4.49;76.97;101377.29;105313;1286;73193;-55
2023/12/27 08:36:51;;;;;;;14.70;1.80;;;;;;;4.48;77.22;101376.92;105194;1286;67118;-55
2023/12/27 08:39:38;;;;;;;6.90;1.60;;;;;;;4.48;77.05;101384.46;105219;1285;74021;-56
2023/12/27 08:42:24;;;;;;;11.80;1.90;;;;;;;4.50;77.26;101389.45;105306;1286;61193;-57
2023/12/27 08:45:11;;;;;;;7.40;1.50;;;;;;;4.55;77.06;101393.98;105407;1285;60950;-54
2023/12/27 08:47:57;;;;;;;11.00;1.90;;;;;;;4.56;77.01;101399.80;105350;1285;73252;-58
2023/12/27 08:50:44;;;;;;;10.50;1.20;;;;;;;4.55;76.61;101400.83;105267;1287;67588;-56
2023/12/27 08:53:30;;;;;;;10.30;2.00;;;;;;;4.56;76.64;101399.66;105336;1285;72273;-58
2023/12/27 08:56:17;;;;;;;5.60;1.20;;;;;;;4.65;76.75;101397.45;105324;1288;61352;-58
2023/12/27 08:59:03;;;;;;;10.50;1.40;;;;;;;4.65;76.28;101394.88;105313;1285;61169;-59
2023/12/27 09:01:49;;;;;;;;;;;;;;;4.63;76.14;101397.07;105308;1288;73148;-55
2023/12/27 09:04:35;;;;;;;;;;;;;;;4.74;76.06;101404.25;105347;1284;71403;-56
2023/12/27 09:07:22;;;;;;;9.20;1.50;;;;;;;4.83;76.28;101411.09;105348;1287;72161;-58
2023/12/27 09:10:08;;;;;;;6.70;1.60;;;;;;;4.92;76.34;101416.95;105345;1286;61269;-54
2023/12/27 09:12:55;;;;;;;10.70;2.00;;;;;;;5.00;75.85;101419.13;106682;1285;60233;-58
2023/12/27 09:15:41;;;;;;;7.40;1.60;;;;;;;5.03;75.61;101423.12;106017;1285;74245;-59
2023/12/27 09:18:28;;;;;;;6.60;1.60;;;;;;;5.07;75.52;101422.02;106667;1285;68300;-57
2023/12/27 09:21:14;;;;;;;7.70;2.10;;;;;;;5.14;75.07;101419.23;106166;1285;73150;-55
2023/12/27 09:24:00;;;;;;;7.90;1.40;;;;;;;5.19;75.51;101422.05;101517;1289;5003766;-56
2023/12/27 09:26:49;;;;;;;8.20;1.60;;;;;;;5.30;75.08;101419.52;105349;1285;61165;-57
2023/12/27 09:29:35;;;;;;;7.00;2.00;;;;;;;5.35;75.58;101420.11;105321;1285;75939;-55
2023/12/27 09:32:22;;;;;;;5.10;1.30;;;;;;;5.55;75.02;101419.44;105330;1286;66334;-56
2023/12/27 09:35:08;;;;;;;4.50;1.30;;;;;;;5.52;74.82;101421.11;105373;1288;71499;-55
2023/12/27 09:37:55;;;;;;;10.40;1.80;;;;;;;5.43;74.19;101422.83;105355;1286;61143;-58
2023/12/27 09:40:41;;;;;;;10.70;1.90;;;;;;;5.36;74.69;101419.95;105385;1284;61177;-58
2023/12/27 09:43:27;;;;;;;8.70;1.80;;;;;;;5.33;74.33;101422.98;105315;1286;73875;-55
2023/12/27 09:46:14;;;;;;;8.50;1.90;;;;;;;5.31;73.80;101422.95;105311;1285;69963;-58
2023/12/27 09:49:01;;;;;;;15.10;2.30;;;;;;;5.30;74.07;101418.98;105337;1285;71088;-58
2023/12/27 09:51:47;;;;;;;;;;;;;;;5.23;73.79;101422.11;105316;1285;61287;-54
2023/12/27 09:54:33;;;;;;;;;;;;;;;5.30;74.34;101422.24;105350;1285;61120;-58
2023/12/27 09:57:20;;;;;;;;;;;;;;;5.39;74.44;101423.45;105328;1285;75957;-57
2023/12/27 10:00:12;;;;;;;14.10;2.00;;;;;;;5.54;74.30;101425.25;105333;1288;67349;-57
2023/12/27 10:02:59;;;;;;;12.80;2.70;;;;;;;5.64;73.71;101421.50;106405;1288;71392;-56
2023/12/27 10:06:12;;;;;;;12.20;2.10;;;;;;;5.63;73.92;101425.91;105301;1285;61187;-56
2023/12/27 10:08:58;;;;;;;11.60;3.30;;;;;;;5.57;73.06;101420.34;105465;1285;61167;-54
2023/12/27 10:11:45;;;;;;;4.80;1.30;;;;;;;5.49;72.60;101422.27;105356;1285;77351;-58
2023/12/27 10:14:33;;;;;;;12.90;2.10;;;;;;;5.53;72.83;101418.21;105312;1286;70431;-55
2023/12/27 10:17:19;;;;;;;9.00;1.70;;;;;;;5.68;73.12;101421.88;105304;1285;72026;-56
2023/12/27 10:20:07;;;;;;;7.60;1.50;;;;;;;6.01;73.28;101418.32;97989;1286;10002009;-58
2023/12/27 10:22:53;;;;;;;10.10;1.80;;;;;;;6.24;73.51;101424.33;106431;1285;66758;-58
2023/12/27 10:25:40;;;;;;;9.00;1.50;;;;;;;6.32;72.93;101430.23;105338;1286;71394;-54
2023/12/27 10:28:26;;;;;;;9.20;1.60;;;;;;;6.11;72.10;101427.05;105280;1285;61574;-56
2023/12/27 10:31:12;;;;;;;7.40;1.50;;;;;;;6.03;72.66;101429.84;105330;1285;60998;-54
2023/12/27 10:34:02;;;;;;;9.20;1.60;;;;;;;6.33;73.20;101425.80;105333;1284;73252;-56
2023/12/27 10:36:52;;;;;;;11.60;1.70;;;;;;;6.57;72.26;101430.25;105281;1285;67209;-57
2023/12/27 10:39:45;;;;;;;11.00;1.80;;;;;;;6.56;73.19;101429.90;105303;1285;71326;-53
2023/12/27 10:42:31;;;;;;;14.00;2.20;;;;;;;6.70;72.13;101436.23;105304;1283;61474;-53
2023/12/27 10:45:18;;;;;;;9.30;1.90;;;;;;;6.65;72.69;101442.87;105254;1286;61244;-56
2023/12/27 10:48:05;;;;;;;7.50;1.90;;;;;;;6.73;72.50;101440.22;105298;1288;74860;-54
2023/12/27 10:50:52;;;;;;;8.70;1.80;;;;;;;6.60;71.77;101443.32;106740;1284;69445;-57
2023/12/27 10:54:03;;;;;;;10.80;1.90;;;;;;;6.62;71.47;101442.32;106663;1285;71035;-58
2023/12/27 10:56:53;;;;;;;8.00;1.90;;;;;;;6.50;71.15;101445.41;106637;1285;59114;-58
2023/12/27 10:59:40;;;;;;;12.10;2.20;;;;;;;6.88;70.78;101445.20;105369;1285;61216;-56
2023/12/27 11:02:28;;;;;;;13.00;2.00;;;;;;;6.91;71.37;101448.31;105321;1288;73196;-54
2023/12/27 11:05:23;;;;;;;6.80;2.10;;;;;;;6.83;71.41;101445.64;106536;1288;68219;-56
2023/12/27 11:08:12;;;;;;;6.90;1.70;;;;;;;7.05;71.52;101449.00;105343;1285;71236;-56
2023/12/27 11:11:03;;;;;;;10.50;2.90;;;;;;;7.05;71.30;101453.63;105360;1285;61359;-53
2023/12/27 11:13:52;;;;;;;9.40;2.30;;;;;;;6.74;70.72;101456.68;105286;1286;61174;-52
2023/12/27 11:16:39;;;;;;;8.70;2.20;;;;;;;6.40;71.00;101457.58;105334;1284;73170;-56
2023/12/27 11:19:27;;;;;;;11.90;1.90;;;;;;;6.31;70.63;101458.32;105346;1287;67186;-58
2023/12/27 11:22:13;;;;;;;12.60;1.90;;;;;;;6.14;70.70;101457.23;105295;1284;74038;-54
2023/12/27 11:25:00;;;;;;;11.40;2.40;;;;;;;6.21;69.91;101453.23;105188;1286;61329;-54
2023/12/27 11:27:47;;;;;;;6.50;1.50;;;;;;;6.17;70.19;101452.98;105391;1285;61375;-56
2023/12/27 11:30:33;;;;;;;;;;;;;;;6.06;70.18;101448.52;105346;1285;73159;-58
2023/12/27 11:33:22;;;;;;;9.90;2.00;;;;;;;6.05;70.70;101447.14;105307;1286;71172;-56
2023/12/27 11:36:09;;;;;;;8.10;1.60;;;;;;;6.35;71.35;101443.98;105330;1285;72436;-57
2023/12/27 11:38:56;;;;;;;13.80;3.50;;;;;;;6.66;70.27;101442.88;105226;1285;59399;-56
2023/12/27 11:41:42;;;;;;;9.90;2.40;;;;;;;6.85;70.42;101442.92;105192;1285;61343;-55
2023/12/27 11:44:38;;;;;;;6.50;1.90;;;;;;;7.28;69.86;101439.65;105344;1285;73276;-56
2023/12/27 11:47:27;;;;;;;11.60;2.00;;;;;;;7.97;70.74;101440.26;106596;1285;66815;-54
2023/12/27 11:50:13;;;;;;;7.80;2.30;;;;;;;8.97;70.41;101442.73;105810;1284;71298;-56
2023/12/27 11:52:59;;;;;;;8.90;2.20;;;;;;;9.61;69.44;101440.45;105307;1285;61049;-55
2023/12/27 11:55:46;;;;;;;9.40;2.90;;;;;;;10.11;70.16;101441.14;105352;1285;59707;-54
2023/12/27 11:58:35;;;;;;;10.20;3.90;;;;;;;10.71;69.02;101442.73;105328;1285;73187;-55
2023/12/27 12:01:35;;;;;;;13.40;5.30;;;;;;;10.73;67.98;101439.80;105312;1284;70865;-57
2023/12/27 12:04:40;;;;;;;16.30;5.80;;;;;;;9.98;66.77;101443.90;105307;1285;72046;-53
2023/12/27 12:07:45;;;;;;;16.50;5.40;;;;;;;9.07;67.84;101443.10;105316;1285;61196;-53
2023/12/27 12:10:31;;;;;;;13.70;6.20;;;;;;;8.13;68.78;101437.11;105374;1283;61210;-56
2023/12/27 12:13:18;;;;;;;17.60;4.00;;;;;;;7.89;69.00;101436.07;105333;1286;76048;-56
2023/12/27 12:16:08;;;;;;;11.70;3.00;;;;;;;7.75;68.85;101435.96;105342;1285;67448;-56
2023/12/27 12:18:56;;;;;;;7.60;2.30;;;;;;;7.53;69.12;101436.64;105333;1288;73548;-57
2023/12/27 12:21:42;;;;;;;5.30;1.70;;;;;;;7.33;68.33;101437.29;105369;1284;60998;-64
2023/12/27 12:24:29;;;;;;;;;;;;;;;6.95;68.56;101438.94;105361;1285;61209;-57
2023/12/27 12:27:20;;;;;;;4.40;1.70;;;;;;;6.84;69.36;101436.23;105303;1285;73334;-57
2023/12/27 12:30:07;;;;;;;8.60;2.00;;;;;;;7.03;69.19;101438.35;105338;1285;67348;-59
2023/12/27 12:32:54;;;;;;;13.10;2.30;;;;;;;7.13;69.20;101436.59;106635;1285;71333;-59
2023/12/27 12:35:40;;;;;;;8.00;1.90;;;;;;;7.32;69.01;101434.52;106632;1285;58954;-57
2023/12/27 12:38:26;;;;;;;10.40;1.60;;;;;;;7.77;70.03;101433.58;106196;1284;61198;-57
2023/12/27 12:41:12;;;;;;;9.80;2.10;;;;;;;8.29;69.79;101434.65;105375;1285;74092;-57
2023/12/27 12:43:59;;;;;;;10.60;1.80;;;;;;;8.71;69.27;101434.73;105338;1285;69929;-53
2023/12/27 12:46:46;;;;;;;8.20;2.10;;;;;;;8.65;68.56;101434.52;105304;1285;71538;-57
2023/12/27 12:49:32;;;;;;;7.80;1.60;;;;;;;8.34;68.09;101435.20;105312;1288;60984;-55
2023/12/27 12:52:19;;;;;;;10.80;2.90;;;;;;;7.91;68.07;101433.68;105241;1285;64563;-56
2023/12/27 12:55:07;;;;;;;9.80;2.10;;;;;;;7.58;68.16;101437.54;105352;1286;74232;-59
2023/12/27 12:57:53;;;;;;;18.80;3.80;;;;;;;7.25;68.20;101434.81;105343;1286;67254;-58
2023/12/27 13:00:40;;;;;;;13.40;4.20;;;;;;;6.91;67.43;101433.59;105306;1285;71315;-57